sensor_id;sensor_type;location;lat;lon;timestamp;P1;durP1;ratioP1;P2;durP2;ratioP2
9801;SDS011;4940;50.900;4.672;2024-03-02T00:01:41;42.75;;;39.40;;
9801;SDS011;4940;50.900;4.672;2024-03-02T00:04:09;42.22;;;39.03;;
9801;SDS011;4940;50.900;4.672;2024-03-02T00:06:36;40.83;;;37.63;;
9801;SDS011;4940;50.900;4.672;2024-03-02T00:09:04;41.83;;;38.53;;
9801;SDS011;4940;50.900;4.672;2024-03-02T00:11:34;42.88;;;39.58;;
9801;SDS011;4940;50.900;4.672;2024-03-02T00:14:02;42.50;;;39.20;;
9801;SDS011;4940;50.900;4.672;2024-03-02T00:16:30;44.28;;;40.88;;
9801;SDS011;4940;50.900;4.672;2024-03-02T00:19:02;41.97;;;38.72;;
9801;SDS011;4940;50.900;4.672;2024-03-02T00:21:30;48.95;;;45.15;;
9801;SDS011;4940;50.900;4.672;2024-03-02T00:23:58;46.08;;;42.38;;
9801;SDS011;4940;50.900;4.672;2024-03-02T00:26:26;45.30;;;41.80;;
9801;SDS011;4940;50.900;4.672;2024-03-02T00:28:54;45.38;;;41.88;;
9801;SDS011;4940;50.900;4.672;2024-03-02T00:31:22;44.30;;;40.83;;
9801;SDS011;4940;50.900;4.672;2024-03-02T00:33:50;41.95;;;38.75;;
9801;SDS011;4940;50.900;4.672;2024-03-02T00:36:22;46.55;;;43.05;;
9801;SDS011;4940;50.900;4.672;2024-03-02T00:38:53;44.80;;;41.33;;
9801;SDS011;4940;50.900;4.672;2024-03-02T00:41:22;47.83;;;44.22;;
9801;SDS011;4940;50.900;4.672;2024-03-02T00:43:57;47.47;;;43.83;;
9801;SDS011;4940;50.900;4.672;2024-03-02T00:46:26;45.05;;;41.65;;
9801;SDS011;4940;50.900;4.672;2024-03-02T00:48:56;46.00;;;42.50;;
9801;SDS011;4940;50.900;4.672;2024-03-02T00:51:25;45.65;;;42.15;;
9801;SDS011;4940;50.900;4.672;2024-03-02T00:53:53;46.00;;;42.47;;
9801;SDS011;4940;50.900;4.672;2024-03-02T00:56:22;46.58;;;42.97;;
9801;SDS011;4940;50.900;4.672;2024-03-02T00:58:49;44.28;;;40.83;;
9801;SDS011;4940;50.900;4.672;2024-03-02T01:01:17;47.10;;;43.50;;
9801;SDS011;4940;50.900;4.672;2024-03-02T01:03:45;48.10;;;44.47;;
9801;SDS011;4940;50.900;4.672;2024-03-02T01:06:12;50.25;;;46.35;;
9801;SDS011;4940;50.900;4.672;2024-03-02T01:08:41;49.53;;;45.53;;
9801;SDS011;4940;50.900;4.672;2024-03-02T01:11:09;48.65;;;44.95;;
9801;SDS011;4940;50.900;4.672;2024-03-02T01:13:36;57.80;;;53.50;;
9801;SDS011;4940;50.900;4.672;2024-03-02T01:16:04;52.88;;;48.88;;
9801;SDS011;4940;50.900;4.672;2024-03-02T01:18:32;54.83;;;50.60;;
9801;SDS011;4940;50.900;4.672;2024-03-02T01:20:59;54.83;;;50.78;;
9801;SDS011;4940;50.900;4.672;2024-03-02T01:23:26;57.33;;;53.03;;
9801;SDS011;4940;50.900;4.672;2024-03-02T01:25:56;47.25;;;43.55;;
9801;SDS011;4940;50.900;4.672;2024-03-02T01:28:23;47.95;;;44.25;;
9801;SDS011;4940;50.900;4.672;2024-03-02T01:30:50;47.72;;;44.03;;
9801;SDS011;4940;50.900;4.672;2024-03-02T01:33:19;46.38;;;42.88;;
9801;SDS011;4940;50.900;4.672;2024-03-02T01:35:46;43.58;;;40.17;;
9801;SDS011;4940;50.900;4.672;2024-03-02T01:38:14;46.95;;;43.55;;
9801;SDS011;4940;50.900;4.672;2024-03-02T01:40:41;44.47;;;41.25;;
9801;SDS011;4940;50.900;4.672;2024-03-02T01:43:11;43.97;;;40.78;;
9801;SDS011;4940;50.900;4.672;2024-03-02T01:45:38;45.45;;;42.25;;
9801;SDS011;4940;50.900;4.672;2024-03-02T01:48:06;43.40;;;40.20;;
9801;SDS011;4940;50.900;4.672;2024-03-02T01:50:33;46.35;;;42.95;;
9801;SDS011;4940;50.900;4.672;2024-03-02T01:53:01;45.80;;;42.50;;
9801;SDS011;4940;50.900;4.672;2024-03-02T01:55:29;46.63;;;43.33;;
9801;SDS011;4940;50.900;4.672;2024-03-02T01:57:56;45.40;;;42.20;;
9801;SDS011;4940;50.900;4.672;2024-03-02T02:00:25;47.00;;;43.60;;
9801;SDS011;4940;50.900;4.672;2024-03-02T02:02:53;47.05;;;43.75;;
9801;SDS011;4940;50.900;4.672;2024-03-02T02:05:21;44.92;;;41.65;;
9801;SDS011;4940;50.900;4.672;2024-03-02T02:07:48;42.75;;;39.50;;
9801;SDS011;4940;50.900;4.672;2024-03-02T02:10:15;39.67;;;36.67;;
9801;SDS011;4940;50.900;4.672;2024-03-02T02:12:43;42.72;;;39.58;;
9801;SDS011;4940;50.900;4.672;2024-03-02T02:15:23;43.03;;;39.85;;
9801;SDS011;4940;50.900;4.672;2024-03-02T02:17:53;42.70;;;39.50;;
9801;SDS011;4940;50.900;4.672;2024-03-02T02:20:20;41.92;;;38.72;;
9801;SDS011;4940;50.900;4.672;2024-03-02T02:22:56;43.92;;;40.53;;
9801;SDS011;4940;50.900;4.672;2024-03-02T02:25:23;45.72;;;42.33;;
9801;SDS011;4940;50.900;4.672;2024-03-02T02:27:51;42.58;;;39.38;;
9801;SDS011;4940;50.900;4.672;2024-03-02T02:30:19;42.50;;;39.20;;
9801;SDS011;4940;50.900;4.672;2024-03-02T02:32:47;40.70;;;37.70;;
9801;SDS011;4940;50.900;4.672;2024-03-02T02:35:14;39.95;;;36.95;;
9801;SDS011;4940;50.900;4.672;2024-03-02T02:37:42;40.70;;;37.70;;
9801;SDS011;4940;50.900;4.672;2024-03-02T02:40:11;41.58;;;38.40;;
9801;SDS011;4940;50.900;4.672;2024-03-02T02:42:39;43.95;;;40.65;;
9801;SDS011;4940;50.900;4.672;2024-03-02T02:45:07;41.53;;;38.35;;
9801;SDS011;4940;50.900;4.672;2024-03-02T02:47:34;40.38;;;37.38;;
9801;SDS011;4940;50.900;4.672;2024-03-02T02:50:02;42.13;;;38.83;;
9801;SDS011;4940;50.900;4.672;2024-03-02T02:52:32;41.13;;;37.88;;
9801;SDS011;4940;50.900;4.672;2024-03-02T02:55:03;44.75;;;41.45;;
9801;SDS011;4940;50.900;4.672;2024-03-02T02:57:32;44.70;;;41.15;;
9801;SDS011;4940;50.900;4.672;2024-03-02T03:00:03;44.63;;;41.53;;
9801;SDS011;4940;50.900;4.672;2024-03-02T03:02:35;44.85;;;41.55;;
9801;SDS011;4940;50.900;4.672;2024-03-02T03:05:03;41.97;;;38.67;;
9801;SDS011;4940;50.900;4.672;2024-03-02T03:07:31;39.78;;;36.88;;
9801;SDS011;4940;50.900;4.672;2024-03-02T03:09:59;41.92;;;38.80;;
9801;SDS011;4940;50.900;4.672;2024-03-02T03:12:26;39.85;;;36.95;;
9801;SDS011;4940;50.900;4.672;2024-03-02T03:14:55;41.60;;;38.42;;
9801;SDS011;4940;50.900;4.672;2024-03-02T03:17:22;38.65;;;35.95;;
9801;SDS011;4940;50.900;4.672;2024-03-02T03:19:50;39.28;;;36.20;;
9801;SDS011;4940;50.900;4.672;2024-03-02T03:22:17;38.67;;;35.97;;
9801;SDS011;4940;50.900;4.672;2024-03-02T03:24:45;40.53;;;37.63;;
9801;SDS011;4940;50.900;4.672;2024-03-02T03:27:12;38.50;;;35.80;;
9801;SDS011;4940;50.900;4.672;2024-03-02T03:29:40;38.85;;;36.15;;
9801;SDS011;4940;50.900;4.672;2024-03-02T03:32:08;38.42;;;35.53;;
9801;SDS011;4940;50.900;4.672;2024-03-02T03:34:36;37.20;;;34.40;;
9801;SDS011;4940;50.900;4.672;2024-03-02T03:37:03;37.88;;;35.13;;
9801;SDS011;4940;50.900;4.672;2024-03-02T03:39:31;40.83;;;37.92;;
9801;SDS011;4940;50.900;4.672;2024-03-02T03:41:58;39.28;;;36.28;;
9801;SDS011;4940;50.900;4.672;2024-03-02T03:44:26;40.65;;;37.55;;
9801;SDS011;4940;50.900;4.672;2024-03-02T03:46:53;40.05;;;37.25;;
9801;SDS011;4940;50.900;4.672;2024-03-02T03:49:22;40.88;;;37.95;;
9801;SDS011;4940;50.900;4.672;2024-03-02T03:51:50;40.78;;;37.90;;
9801;SDS011;4940;50.900;4.672;2024-03-02T03:54:17;39.00;;;36.17;;
9801;SDS011;4940;50.900;4.672;2024-03-02T03:56:45;43.80;;;40.70;;
9801;SDS011;4940;50.900;4.672;2024-03-02T03:59:12;41.20;;;38.13;;
9801;SDS011;4940;50.900;4.672;2024-03-02T04:01:40;40.17;;;37.15;;
9801;SDS011;4940;50.900;4.672;2024-03-02T04:04:08;38.75;;;35.85;;
9801;SDS011;4940;50.900;4.672;2024-03-02T04:06:36;38.72;;;35.92;;
9801;SDS011;4940;50.900;4.672;2024-03-02T04:09:04;39.72;;;36.83;;
9801;SDS011;4940;50.900;4.672;2024-03-02T04:11:31;40.08;;;37.17;;
9801;SDS011;4940;50.900;4.672;2024-03-02T04:13:58;38.10;;;35.40;;
9801;SDS011;4940;50.900;4.672;2024-03-02T04:16:26;39.97;;;37.00;;
9801;SDS011;4940;50.900;4.672;2024-03-02T04:18:54;39.75;;;36.65;;
9801;SDS011;4940;50.900;4.672;2024-03-02T04:21:22;42.60;;;39.05;;
9801;SDS011;4940;50.900;4.672;2024-03-02T04:23:50;40.13;;;37.33;;
9801;SDS011;4940;50.900;4.672;2024-03-02T04:26:18;39.88;;;36.92;;
9801;SDS011;4940;50.900;4.672;2024-03-02T04:28:47;43.80;;;40.50;;
9801;SDS011;4940;50.900;4.672;2024-03-02T04:31:15;40.63;;;37.72;;
9801;SDS011;4940;50.900;4.672;2024-03-02T04:33:42;39.00;;;36.13;;
9801;SDS011;4940;50.900;4.672;2024-03-02T04:36:10;38.72;;;35.83;;
9801;SDS011;4940;50.900;4.672;2024-03-02T04:38:37;39.30;;;36.33;;
9801;SDS011;4940;50.900;4.672;2024-03-02T04:41:06;39.28;;;36.30;;
9801;SDS011;4940;50.900;4.672;2024-03-02T04:43:33;37.90;;;35.03;;
9801;SDS011;4940;50.900;4.672;2024-03-02T04:46:01;35.13;;;32.58;;
9801;SDS011;4940;50.900;4.672;2024-03-02T04:48:28;37.67;;;34.88;;
9801;SDS011;4940;50.900;4.672;2024-03-02T04:50:56;38.50;;;35.88;;
9801;SDS011;4940;50.900;4.672;2024-03-02T04:53:23;38.13;;;35.35;;
9801;SDS011;4940;50.900;4.672;2024-03-02T04:55:51;38.35;;;35.65;;
9801;SDS011;4940;50.900;4.672;2024-03-02T04:58:45;39.38;;;36.58;;
9801;SDS011;4940;50.900;4.672;2024-03-02T05:01:13;36.67;;;34.08;;
9801;SDS011;4940;50.900;4.672;2024-03-02T05:03:42;37.45;;;34.75;;
9801;SDS011;4940;50.900;4.672;2024-03-02T05:06:10;36.17;;;33.67;;
9801;SDS011;4940;50.900;4.672;2024-03-02T05:08:37;40.40;;;37.53;;
9801;SDS011;4940;50.900;4.672;2024-03-02T05:11:05;38.25;;;35.47;;
9801;SDS011;4940;50.900;4.672;2024-03-02T05:13:52;38.90;;;36.20;;
9801;SDS011;4940;50.900;4.672;2024-03-02T05:16:19;38.13;;;35.53;;
9801;SDS011;4940;50.900;4.672;2024-03-02T05:18:47;42.90;;;40.10;;
9801;SDS011;4940;50.900;4.672;2024-03-02T05:21:15;41.00;;;38.08;;
9801;SDS011;4940;50.900;4.672;2024-03-02T05:23:42;43.92;;;41.13;;
9801;SDS011;4940;50.900;4.672;2024-03-02T05:26:10;45.30;;;42.25;;
9801;SDS011;4940;50.900;4.672;2024-03-02T05:28:38;42.10;;;39.00;;
9801;SDS011;4940;50.900;4.672;2024-03-02T05:31:09;41.95;;;38.75;;
9801;SDS011;4940;50.900;4.672;2024-03-02T05:33:37;37.58;;;34.88;;
9801;SDS011;4940;50.900;4.672;2024-03-02T05:36:05;38.40;;;35.47;;
9801;SDS011;4940;50.900;4.672;2024-03-02T05:38:34;36.58;;;34.03;;
9801;SDS011;4940;50.900;4.672;2024-03-02T05:41:02;36.28;;;33.47;;
9801;SDS011;4940;50.900;4.672;2024-03-02T05:43:30;36.22;;;33.63;;
9801;SDS011;4940;50.900;4.672;2024-03-02T05:45:57;36.42;;;34.00;;
9801;SDS011;4940;50.900;4.672;2024-03-02T05:48:26;37.78;;;35.10;;
9801;SDS011;4940;50.900;4.672;2024-03-02T05:50:53;40.85;;;37.95;;
9801;SDS011;4940;50.900;4.672;2024-03-02T05:53:21;38.17;;;35.22;;
9801;SDS011;4940;50.900;4.672;2024-03-02T05:55:49;36.22;;;33.45;;
9801;SDS011;4940;50.900;4.672;2024-03-02T05:58:18;35.28;;;32.88;;
9801;SDS011;4940;50.900;4.672;2024-03-02T06:00:57;35.83;;;33.15;;
9801;SDS011;4940;50.900;4.672;2024-03-02T06:03:26;39.20;;;36.60;;
9801;SDS011;4940;50.900;4.672;2024-03-02T06:05:54;35.10;;;32.70;;
9801;SDS011;4940;50.900;4.672;2024-03-02T06:08:21;37.28;;;34.72;;
9801;SDS011;4940;50.900;4.672;2024-03-02T06:10:49;37.25;;;34.75;;
9801;SDS011;4940;50.900;4.672;2024-03-02T06:13:16;36.80;;;34.15;;
9801;SDS011;4940;50.900;4.672;2024-03-02T06:15:44;40.30;;;37.70;;
9801;SDS011;4940;50.900;4.672;2024-03-02T06:18:11;39.35;;;36.63;;
9801;SDS011;4940;50.900;4.672;2024-03-02T06:20:40;36.70;;;34.08;;
9801;SDS011;4940;50.900;4.672;2024-03-02T06:23:07;37.80;;;35.30;;
9801;SDS011;4940;50.900;4.672;2024-03-02T06:25:35;38.80;;;36.05;;
9801;SDS011;4940;50.900;4.672;2024-03-02T06:28:02;37.40;;;34.88;;
9801;SDS011;4940;50.900;4.672;2024-03-02T06:30:30;36.35;;;33.28;;
9801;SDS011;4940;50.900;4.672;2024-03-02T06:32:57;33.65;;;31.40;;
9801;SDS011;4940;50.900;4.672;2024-03-02T06:35:25;36.97;;;34.30;;
9801;SDS011;4940;50.900;4.672;2024-03-02T06:37:53;33.42;;;30.80;;
9801;SDS011;4940;50.900;4.672;2024-03-02T06:40:21;32.20;;;29.73;;
9801;SDS011;4940;50.900;4.672;2024-03-02T06:42:48;34.33;;;31.33;;
9801;SDS011;4940;50.900;4.672;2024-03-02T06:45:16;35.20;;;32.33;;
9801;SDS011;4940;50.900;4.672;2024-03-02T06:47:43;33.65;;;30.95;;
9801;SDS011;4940;50.900;4.672;2024-03-02T06:50:11;35.50;;;32.47;;
9801;SDS011;4940;50.900;4.672;2024-03-02T06:52:38;35.88;;;32.10;;
9801;SDS011;4940;50.900;4.672;2024-03-02T06:55:07;33.47;;;30.45;;
9801;SDS011;4940;50.900;4.672;2024-03-02T06:57:35;33.97;;;31.15;;
9801;SDS011;4940;50.900;4.672;2024-03-02T07:00:02;34.78;;;31.67;;
9801;SDS011;4940;50.900;4.672;2024-03-02T07:02:30;35.05;;;32.28;;
9801;SDS011;4940;50.900;4.672;2024-03-02T07:04:58;34.33;;;31.73;;
9801;SDS011;4940;50.900;4.672;2024-03-02T07:07:25;35.85;;;32.67;;
9801;SDS011;4940;50.900;4.672;2024-03-02T07:09:53;34.90;;;31.70;;
9801;SDS011;4940;50.900;4.672;2024-03-02T07:12:21;36.63;;;33.40;;
9801;SDS011;4940;50.900;4.672;2024-03-02T07:14:49;38.28;;;34.55;;
9801;SDS011;4940;50.900;4.672;2024-03-02T07:17:33;38.33;;;34.90;;
9801;SDS011;4940;50.900;4.672;2024-03-02T07:20:02;36.35;;;33.15;;
9801;SDS011;4940;50.900;4.672;2024-03-02T07:22:30;36.78;;;33.25;;
9801;SDS011;4940;50.900;4.672;2024-03-02T07:24:57;36.22;;;33.03;;
9801;SDS011;4940;50.900;4.672;2024-03-02T07:27:26;35.75;;;32.70;;
9801;SDS011;4940;50.900;4.672;2024-03-02T07:29:53;32.20;;;29.55;;
9801;SDS011;4940;50.900;4.672;2024-03-02T07:32:21;29.77;;;27.27;;
9801;SDS011;4940;50.900;4.672;2024-03-02T07:34:48;30.27;;;27.92;;
9801;SDS011;4940;50.900;4.672;2024-03-02T07:37:16;29.42;;;27.25;;
9801;SDS011;4940;50.900;4.672;2024-03-02T07:39:45;30.80;;;28.48;;
9801;SDS011;4940;50.900;4.672;2024-03-02T07:42:13;29.83;;;27.80;;
9801;SDS011;4940;50.900;4.672;2024-03-02T07:44:43;25.08;;;23.60;;
9801;SDS011;4940;50.900;4.672;2024-03-02T07:47:10;21.33;;;20.02;;
9801;SDS011;4940;50.900;4.672;2024-03-02T07:49:38;18.67;;;17.42;;
9801;SDS011;4940;50.900;4.672;2024-03-02T07:52:05;13.85;;;13.05;;
9801;SDS011;4940;50.900;4.672;2024-03-02T07:54:33;10.18;;;9.30;;
9801;SDS011;4940;50.900;4.672;2024-03-02T07:57:01;6.55;;;5.90;;
9801;SDS011;4940;50.900;4.672;2024-03-02T07:59:29;2.47;;;2.28;;
9801;SDS011;4940;50.900;4.672;2024-03-02T08:01:57;3.35;;;1.35;;
9801;SDS011;4940;50.900;4.672;2024-03-02T08:04:26;0.95;;;0.95;;
9801;SDS011;4940;50.900;4.672;2024-03-02T08:06:53;3.47;;;0.93;;
9801;SDS011;4940;50.900;4.672;2024-03-02T08:09:21;1.83;;;1.10;;
9801;SDS011;4940;50.900;4.672;2024-03-02T08:11:48;3.38;;;1.40;;
9801;SDS011;4940;50.900;4.672;2024-03-02T08:14:16;2.08;;;0.70;;
9801;SDS011;4940;50.900;4.672;2024-03-02T08:16:43;1.65;;;0.65;;
9801;SDS011;4940;50.900;4.672;2024-03-02T08:19:14;2.65;;;0.70;;
9801;SDS011;4940;50.900;4.672;2024-03-02T08:21:43;1.10;;;0.70;;
9801;SDS011;4940;50.900;4.672;2024-03-02T08:24:10;1.27;;;0.80;;
9801;SDS011;4940;50.900;4.672;2024-03-02T08:26:38;3.63;;;0.90;;
9801;SDS011;4940;50.900;4.672;2024-03-02T08:29:05;1.85;;;0.70;;
9801;SDS011;4940;50.900;4.672;2024-03-02T08:31:33;1.95;;;0.50;;
9801;SDS011;4940;50.900;4.672;2024-03-02T08:34:00;5.30;;;1.10;;
9801;SDS011;4940;50.900;4.672;2024-03-02T08:36:29;3.17;;;0.70;;
9801;SDS011;4940;50.900;4.672;2024-03-02T08:38:56;3.05;;;0.90;;
9801;SDS011;4940;50.900;4.672;2024-03-02T08:41:23;2.13;;;0.93;;
9801;SDS011;4940;50.900;4.672;2024-03-02T08:43:51;1.25;;;0.73;;
9801;SDS011;4940;50.900;4.672;2024-03-02T08:46:18;1.08;;;0.93;;
9801;SDS011;4940;50.900;4.672;2024-03-02T08:48:46;2.58;;;1.00;;
9801;SDS011;4940;50.900;4.672;2024-03-02T08:51:14;2.40;;;0.70;;
9801;SDS011;4940;50.900;4.672;2024-03-02T08:53:42;2.53;;;0.90;;
9801;SDS011;4940;50.900;4.672;2024-03-02T08:56:10;1.33;;;0.60;;
9801;SDS011;4940;50.900;4.672;2024-03-02T08:58:38;2.88;;;1.13;;
9801;SDS011;4940;50.900;4.672;2024-03-02T09:01:05;2.65;;;0.80;;
9801;SDS011;4940;50.900;4.672;2024-03-02T09:03:33;3.38;;;0.80;;
9801;SDS011;4940;50.900;4.672;2024-03-02T09:06:01;1.52;;;0.75;;
9801;SDS011;4940;50.900;4.672;2024-03-02T09:08:28;3.25;;;0.93;;
9801;SDS011;4940;50.900;4.672;2024-03-02T09:10:57;0.93;;;0.70;;
9801;SDS011;4940;50.900;4.672;2024-03-02T09:13:24;2.15;;;0.82;;
9801;SDS011;4940;50.900;4.672;2024-03-02T09:15:52;2.92;;;0.75;;
9801;SDS011;4940;50.900;4.672;2024-03-02T09:18:19;1.30;;;0.80;;
9801;SDS011;4940;50.900;4.672;2024-03-02T09:20:47;3.55;;;0.75;;
9801;SDS011;4940;50.900;4.672;2024-03-02T09:23:14;2.17;;;0.95;;
9801;SDS011;4940;50.900;4.672;2024-03-02T09:25:42;1.67;;;0.80;;
9801;SDS011;4940;50.900;4.672;2024-03-02T09:28:11;3.28;;;0.90;;
9801;SDS011;4940;50.900;4.672;2024-03-02T09:30:38;2.72;;;0.90;;
9801;SDS011;4940;50.900;4.672;2024-03-02T09:33:05;2.45;;;0.80;;
9801;SDS011;4940;50.900;4.672;2024-03-02T09:35:32;1.52;;;0.55;;
9801;SDS011;4940;50.900;4.672;2024-03-02T09:38:00;1.48;;;0.80;;
9801;SDS011;4940;50.900;4.672;2024-03-02T09:40:29;1.58;;;0.57;;
9801;SDS011;4940;50.900;4.672;2024-03-02T09:42:56;4.82;;;0.82;;
9801;SDS011;4940;50.900;4.672;2024-03-02T09:45:26;1.42;;;0.68;;
9801;SDS011;4940;50.900;4.672;2024-03-02T09:47:53;1.95;;;0.98;;
9801;SDS011;4940;50.900;4.672;2024-03-02T09:50:21;1.58;;;0.73;;
9801;SDS011;4940;50.900;4.672;2024-03-02T09:52:49;2.67;;;0.80;;
9801;SDS011;4940;50.900;4.672;2024-03-02T09:55:16;6.03;;;1.20;;
9801;SDS011;4940;50.900;4.672;2024-03-02T09:57:44;2.63;;;0.77;;
9801;SDS011;4940;50.900;4.672;2024-03-02T10:00:14;1.60;;;0.85;;
9801;SDS011;4940;50.900;4.672;2024-03-02T10:02:43;3.33;;;0.80;;
9801;SDS011;4940;50.900;4.672;2024-03-02T10:05:12;2.80;;;1.05;;
9801;SDS011;4940;50.900;4.672;2024-03-02T10:07:39;2.83;;;0.88;;
9801;SDS011;4940;50.900;4.672;2024-03-02T10:10:12;1.48;;;0.80;;
9801;SDS011;4940;50.900;4.672;2024-03-02T10:12:40;2.22;;;0.90;;
9801;SDS011;4940;50.900;4.672;2024-03-02T10:15:07;2.63;;;0.95;;
9801;SDS011;4940;50.900;4.672;2024-03-02T10:17:37;2.20;;;1.00;;
9801;SDS011;4940;50.900;4.672;2024-03-02T10:22:54;2.50;;;0.88;;
9801;SDS011;4940;50.900;4.672;2024-03-02T10:25:28;3.35;;;1.10;;
9801;SDS011;4940;50.900;4.672;2024-03-02T10:27:57;1.75;;;1.00;;
9801;SDS011;4940;50.900;4.672;2024-03-02T10:30:24;4.47;;;1.00;;
9801;SDS011;4940;50.900;4.672;2024-03-02T10:32:52;2.42;;;0.90;;
9801;SDS011;4940;50.900;4.672;2024-03-02T10:35:20;1.75;;;0.77;;
9801;SDS011;4940;50.900;4.672;2024-03-02T10:37:49;1.08;;;0.57;;
9801;SDS011;4940;50.900;4.672;2024-03-02T10:40:18;2.13;;;0.60;;
9801;SDS011;4940;50.900;4.672;2024-03-02T10:42:46;2.63;;;0.80;;
9801;SDS011;4940;50.900;4.672;2024-03-02T10:45:14;2.90;;;0.80;;
9801;SDS011;4940;50.900;4.672;2024-03-02T10:47:43;0.88;;;0.55;;
9801;SDS011;4940;50.900;4.672;2024-03-02T10:50:10;1.67;;;0.70;;
9801;SDS011;4940;50.900;4.672;2024-03-02T10:52:38;3.25;;;0.75;;
9801;SDS011;4940;50.900;4.672;2024-03-02T10:55:08;2.70;;;0.75;;
9801;SDS011;4940;50.900;4.672;2024-03-02T10:57:41;1.88;;;0.60;;
9801;SDS011;4940;50.900;4.672;2024-03-02T11:00:11;1.05;;;0.70;;
9801;SDS011;4940;50.900;4.672;2024-03-02T11:02:46;4.20;;;0.70;;
9801;SDS011;4940;50.900;4.672;2024-03-02T11:07:43;2.33;;;0.80;;
9801;SDS011;4940;50.900;4.672;2024-03-02T11:10:12;1.23;;;0.60;;
9801;SDS011;4940;50.900;4.672;2024-03-02T11:12:43;3.70;;;0.90;;
9801;SDS011;4940;50.900;4.672;2024-03-02T11:15:19;2.85;;;0.90;;
9801;SDS011;4940;50.900;4.672;2024-03-02T11:17:51;4.35;;;0.70;;
9801;SDS011;4940;50.900;4.672;2024-03-02T11:20:20;1.40;;;0.73;;
9801;SDS011;4940;50.900;4.672;2024-03-02T11:22:47;2.60;;;0.70;;
9801;SDS011;4940;50.900;4.672;2024-03-02T11:25:26;2.55;;;0.70;;
9801;SDS011;4940;50.900;4.672;2024-03-02T11:28:04;3.50;;;0.77;;
9801;SDS011;4940;50.900;4.672;2024-03-02T11:30:52;2.72;;;0.82;;
9801;SDS011;4940;50.900;4.672;2024-03-02T11:33:23;1.40;;;0.70;;
9801;SDS011;4940;50.900;4.672;2024-03-02T11:35:52;0.68;;;0.60;;
9801;SDS011;4940;50.900;4.672;2024-03-02T11:38:20;1.58;;;0.68;;
9801;SDS011;4940;50.900;4.672;2024-03-02T11:40:50;1.90;;;0.77;;
9801;SDS011;4940;50.900;4.672;2024-03-02T11:43:17;2.85;;;0.80;;
9801;SDS011;4940;50.900;4.672;2024-03-02T11:45:44;1.90;;;0.80;;
9801;SDS011;4940;50.900;4.672;2024-03-02T11:48:13;3.95;;;1.10;;
9801;SDS011;4940;50.900;4.672;2024-03-02T11:50:41;2.53;;;0.57;;
9801;SDS011;4940;50.900;4.672;2024-03-02T11:53:14;2.00;;;1.00;;
9801;SDS011;4940;50.900;4.672;2024-03-02T11:55:42;2.05;;;0.80;;
9801;SDS011;4940;50.900;4.672;2024-03-02T11:58:13;1.48;;;0.70;;
9801;SDS011;4940;50.900;4.672;2024-03-02T12:00:41;1.08;;;0.60;;
9801;SDS011;4940;50.900;4.672;2024-03-02T12:03:09;1.75;;;0.63;;
9801;SDS011;4940;50.900;4.672;2024-03-02T12:05:39;2.47;;;0.70;;
9801;SDS011;4940;50.900;4.672;2024-03-02T12:08:08;0.85;;;0.50;;
9801;SDS011;4940;50.900;4.672;2024-03-02T12:10:36;3.10;;;1.00;;
9801;SDS011;4940;50.900;4.672;2024-03-02T12:13:04;1.63;;;0.80;;
9801;SDS011;4940;50.900;4.672;2024-03-02T12:15:34;2.53;;;0.63;;
9801;SDS011;4940;50.900;4.672;2024-03-02T12:18:02;2.22;;;0.68;;
9801;SDS011;4940;50.900;4.672;2024-03-02T12:20:31;2.35;;;0.65;;
9801;SDS011;4940;50.900;4.672;2024-03-02T12:22:59;3.88;;;0.73;;
9801;SDS011;4940;50.900;4.672;2024-03-02T12:25:27;4.82;;;0.90;;
9801;SDS011;4940;50.900;4.672;2024-03-02T12:27:56;1.70;;;0.73;;
9801;SDS011;4940;50.900;4.672;2024-03-02T12:30:26;1.52;;;0.82;;
9801;SDS011;4940;50.900;4.672;2024-03-02T12:32:56;4.82;;;0.80;;
9801;SDS011;4940;50.900;4.672;2024-03-02T12:35:24;2.10;;;0.77;;
9801;SDS011;4940;50.900;4.672;2024-03-02T12:37:52;5.97;;;0.80;;
9801;SDS011;4940;50.900;4.672;2024-03-02T12:40:20;2.30;;;0.65;;
9801;SDS011;4940;50.900;4.672;2024-03-02T12:42:48;2.40;;;0.82;;
9801;SDS011;4940;50.900;4.672;2024-03-02T12:45:16;1.98;;;0.85;;
9801;SDS011;4940;50.900;4.672;2024-03-02T12:47:49;1.58;;;0.68;;
9801;SDS011;4940;50.900;4.672;2024-03-02T12:50:18;4.47;;;0.80;;
9801;SDS011;4940;50.900;4.672;2024-03-02T12:52:50;2.55;;;0.57;;
9801;SDS011;4940;50.900;4.672;2024-03-02T12:55:18;1.88;;;0.60;;
9801;SDS011;4940;50.900;4.672;2024-03-02T12:57:47;1.45;;;0.40;;
9801;SDS011;4940;50.900;4.672;2024-03-02T13:00:15;0.70;;;0.40;;
9801;SDS011;4940;50.900;4.672;2024-03-02T13:02:45;2.58;;;0.90;;
9801;SDS011;4940;50.900;4.672;2024-03-02T13:05:13;2.28;;;0.55;;
9801;SDS011;4940;50.900;4.672;2024-03-02T13:07:42;3.30;;;0.73;;
9801;SDS011;4940;50.900;4.672;2024-03-02T13:10:10;1.50;;;0.70;;
9801;SDS011;4940;50.900;4.672;2024-03-02T13:12:37;3.15;;;0.65;;
9801;SDS011;4940;50.900;4.672;2024-03-02T13:15:05;1.38;;;0.70;;
9801;SDS011;4940;50.900;4.672;2024-03-02T13:17:34;1.20;;;0.57;;
9801;SDS011;4940;50.900;4.672;2024-03-02T13:20:02;1.23;;;0.60;;
9801;SDS011;4940;50.900;4.672;2024-03-02T13:22:33;2.03;;;0.50;;
9801;SDS011;4940;50.900;4.672;2024-03-02T13:25:02;1.42;;;0.70;;
9801;SDS011;4940;50.900;4.672;2024-03-02T13:27:30;1.85;;;0.65;;
9801;SDS011;4940;50.900;4.672;2024-03-02T13:29:58;3.25;;;0.68;;
9801;SDS011;4940;50.900;4.672;2024-03-02T13:32:25;2.47;;;0.77;;
9801;SDS011;4940;50.900;4.672;2024-03-02T13:34:53;2.08;;;0.60;;
9801;SDS011;4940;50.900;4.672;2024-03-02T13:37:20;1.67;;;0.60;;
9801;SDS011;4940;50.900;4.672;2024-03-02T13:39:47;1.85;;;0.80;;
9801;SDS011;4940;50.900;4.672;2024-03-02T13:42:16;1.98;;;0.57;;
9801;SDS011;4940;50.900;4.672;2024-03-02T13:44:44;2.28;;;0.63;;
9801;SDS011;4940;50.900;4.672;2024-03-02T13:47:13;0.55;;;0.45;;
9801;SDS011;4940;50.900;4.672;2024-03-02T13:49:40;1.88;;;0.70;;
9801;SDS011;4940;50.900;4.672;2024-03-02T13:52:10;0.52;;;0.52;;
9801;SDS011;4940;50.900;4.672;2024-03-02T13:54:38;1.05;;;0.63;;
9801;SDS011;4940;50.900;4.672;2024-03-02T13:57:07;1.42;;;0.60;;
9801;SDS011;4940;50.900;4.672;2024-03-02T13:59:36;2.85;;;0.55;;
9801;SDS011;4940;50.900;4.672;2024-03-02T14:02:04;1.80;;;0.82;;
9801;SDS011;4940;50.900;4.672;2024-03-02T14:04:32;3.83;;;0.70;;
9801;SDS011;4940;50.900;4.672;2024-03-02T14:06:59;1.60;;;0.70;;
9801;SDS011;4940;50.900;4.672;2024-03-02T14:09:27;0.90;;;0.70;;
9801;SDS011;4940;50.900;4.672;2024-03-02T14:11:55;2.10;;;0.70;;
9801;SDS011;4940;50.900;4.672;2024-03-02T14:14:23;0.82;;;0.65;;
9801;SDS011;4940;50.900;4.672;2024-03-02T14:16:51;0.98;;;0.60;;
9801;SDS011;4940;50.900;4.672;2024-03-02T14:19:19;1.25;;;0.80;;
9801;SDS011;4940;50.900;4.672;2024-03-02T14:21:47;0.52;;;0.40;;
9801;SDS011;4940;50.900;4.672;2024-03-02T14:24:15;1.15;;;0.57;;
9801;SDS011;4940;50.900;4.672;2024-03-02T14:26:42;1.48;;;0.70;;
9801;SDS011;4940;50.900;4.672;2024-03-02T14:29:10;0.68;;;0.55;;
9801;SDS011;4940;50.900;4.672;2024-03-02T14:31:38;1.40;;;0.40;;
9801;SDS011;4940;50.900;4.672;2024-03-02T14:34:06;1.83;;;0.65;;
9801;SDS011;4940;50.900;4.672;2024-03-02T14:36:34;0.75;;;0.57;;
9801;SDS011;4940;50.900;4.672;2024-03-02T14:39:01;1.83;;;0.90;;
9801;SDS011;4940;50.900;4.672;2024-03-02T14:41:29;1.75;;;0.68;;
9801;SDS011;4940;50.900;4.672;2024-03-02T14:43:57;0.57;;;0.52;;
9801;SDS011;4940;50.900;4.672;2024-03-02T14:46:25;1.00;;;0.60;;
9801;SDS011;4940;50.900;4.672;2024-03-02T14:48:52;1.20;;;0.43;;
9801;SDS011;4940;50.900;4.672;2024-03-02T14:51:21;0.60;;;0.60;;
9801;SDS011;4940;50.900;4.672;2024-03-02T14:53:48;2.00;;;0.60;;
9801;SDS011;4940;50.900;4.672;2024-03-02T14:56:16;1.60;;;0.80;;
9801;SDS011;4940;50.900;4.672;2024-03-02T14:58:43;1.50;;;0.70;;
9801;SDS011;4940;50.900;4.672;2024-03-02T15:01:11;0.85;;;0.50;;
9801;SDS011;4940;50.900;4.672;2024-03-02T15:03:39;1.65;;;0.80;;
9801;SDS011;4940;50.900;4.672;2024-03-02T15:06:06;0.55;;;0.55;;
9801;SDS011;4940;50.900;4.672;2024-03-02T15:08:36;4.10;;;0.80;;
9801;SDS011;4940;50.900;4.672;2024-03-02T15:11:06;1.67;;;0.73;;
9801;SDS011;4940;50.900;4.672;2024-03-02T15:13:33;1.52;;;0.55;;